sensor_id;sensor_type;location;lat;lon;timestamp;pressure;altitude;pressure_sealevel;temperature;humidity
16331;BME280;8275;48.206;16.340;2023-03-16T00:00:09;99580.22;;;8.58;40.29
16331;BME280;8275;48.206;16.340;2023-03-16T00:02:40;99588.63;;;8.57;40.16
16331;BME280;8275;48.206;16.340;2023-03-16T00:05:12;99581.75;;;8.54;39.92
16331;BME280;8275;48.206;16.340;2023-03-16T00:07:41;99586.59;;;8.52;39.75
16331;BME280;8275;48.206;16.340;2023-03-16T00:10:11;99588.72;;;8.50;40.39
16331;BME280;8275;48.206;16.340;2023-03-16T00:12:40;99595.50;;;8.47;39.88
16331;BME280;8275;48.206;16.340;2023-03-16T00:15:10;99593.25;;;8.44;39.99
16331;BME280;8275;48.206;16.340;2023-03-16T00:17:39;99593.47;;;8.43;40.29
16331;BME280;8275;48.206;16.340;2023-03-16T00:20:11;99601.06;;;8.41;40.02
16331;BME280;8275;48.206;16.340;2023-03-16T00:22:40;99593.38;;;8.38;40.22
16331;BME280;8275;48.206;16.340;2023-03-16T00:25:11;99604.50;;;8.36;40.40
16331;BME280;8275;48.206;16.340;2023-03-16T00:27:40;99606.63;;;8.34;40.32
16331;BME280;8275;48.206;16.340;2023-03-16T00:30:11;99613.38;;;8.32;40.20
16331;BME280;8275;48.206;16.340;2023-03-16T00:32:39;99606.28;;;8.31;40.07
16331;BME280;8275;48.206;16.340;2023-03-16T00:35:08;99615.53;;;8.30;40.16
16331;BME280;8275;48.206;16.340;2023-03-16T00:37:38;99613.03;;;8.28;40.49
16331;BME280;8275;48.206;16.340;2023-03-16T00:40:10;99626.91;;;8.27;40.14
16331;BME280;8275;48.206;16.340;2023-03-16T00:42:39;99626.50;;;8.23;40.23
16331;BME280;8275;48.206;16.340;2023-03-16T00:45:09;99624.63;;;8.24;40.43
16331;BME280;8275;48.206;16.340;2023-03-16T00:47:38;99631.13;;;8.23;40.27
16331;BME280;8275;48.206;16.340;2023-03-16T00:50:09;99634.09;;;8.21;39.98
16331;BME280;8275;48.206;16.340;2023-03-16T00:52:40;99636.84;;;8.21;40.16
16331;BME280;8275;48.206;16.340;2023-03-16T00:55:10;99634.56;;;8.18;40.07
16331;BME280;8275;48.206;16.340;2023-03-16T00:57:39;99633.97;;;8.16;40.21
16331;BME280;8275;48.206;16.340;2023-03-16T01:00:09;99634.41;;;8.13;40.17
16331;BME280;8275;48.206;16.340;2023-03-16T01:02:42;99628.59;;;8.10;40.34
16331;BME280;8275;48.206;16.340;2023-03-16T01:05:13;99635.09;;;8.09;40.24
16331;BME280;8275;48.206;16.340;2023-03-16T01:07:43;99637.47;;;8.05;40.06
16331;BME280;8275;48.206;16.340;2023-03-16T01:10:12;99633.31;;;8.03;40.54
16331;BME280;8275;48.206;16.340;2023-03-16T01:12:40;99642.78;;;8.00;40.59
16331;BME280;8275;48.206;16.340;2023-03-16T01:15:11;99642.19;;;7.98;41.09
16331;BME280;8275;48.206;16.340;2023-03-16T01:17:40;99643.50;;;7.96;40.84
16331;BME280;8275;48.206;16.340;2023-03-16T01:20:10;99649.41;;;7.93;41.00
16331;BME280;8275;48.206;16.340;2023-03-16T01:22:42;99646.91;;;7.91;41.07
16331;BME280;8275;48.206;16.340;2023-03-16T01:25:11;99649.25;;;7.88;40.72
16331;BME280;8275;48.206;16.340;2023-03-16T01:27:40;99657.91;;;7.85;40.36
16331;BME280;8275;48.206;16.340;2023-03-16T01:30:10;99661.91;;;7.82;40.57
16331;BME280;8275;48.206;16.340;2023-03-16T01:32:39;99653.13;;;7.80;40.49
16331;BME280;8275;48.206;16.340;2023-03-16T01:35:09;99650.63;;;7.78;40.86
16331;BME280;8275;48.206;16.340;2023-03-16T01:37:38;99661.16;;;7.75;40.93
16331;BME280;8275;48.206;16.340;2023-03-16T01:40:10;99661.63;;;7.72;41.43
16331;BME280;8275;48.206;16.340;2023-03-16T01:42:47;99667.50;;;7.69;40.69
16331;BME280;8275;48.206;16.340;2023-03-16T01:49:03;99662.84;;;7.58;41.56
16331;BME280;8275;48.206;16.340;2023-03-16T01:51:40;99665.78;;;7.56;41.41
16331;BME280;8275;48.206;16.340;2023-03-16T01:54:19;99674.22;;;7.55;41.59
16331;BME280;8275;48.206;16.340;2023-03-16T01:56:57;99674.41;;;7.53;41.27
16331;BME280;8275;48.206;16.340;2023-03-16T01:59:32;99674.66;;;7.52;41.25
16331;BME280;8275;48.206;16.340;2023-03-16T02:02:03;99682.00;;;7.51;40.64
16331;BME280;8275;48.206;16.340;2023-03-16T02:04:41;99686.00;;;7.49;40.96
16331;BME280;8275;48.206;16.340;2023-03-16T02:07:12;99678.91;;;7.48;40.47
16331;BME280;8275;48.206;16.340;2023-03-16T02:09:45;99686.69;;;7.44;40.96
16331;BME280;8275;48.206;16.340;2023-03-16T02:12:17;99694.03;;;7.44;40.82
16331;BME280;8275;48.206;16.340;2023-03-16T02:14:49;99694.50;;;7.41;40.53
16331;BME280;8275;48.206;16.340;2023-03-16T02:17:21;99684.03;;;7.38;40.80
16331;BME280;8275;48.206;16.340;2023-03-16T02:20:03;99684.28;;;7.36;41.08
16331;BME280;8275;48.206;16.340;2023-03-16T02:22:40;99685.31;;;7.35;40.80
16331;BME280;8275;48.206;16.340;2023-03-16T02:25:10;99689.31;;;7.33;40.83
16331;BME280;8275;48.206;16.340;2023-03-16T02:27:47;99694.16;;;7.31;40.81
16331;BME280;8275;48.206;16.340;2023-03-16T02:30:20;99692.97;;;7.27;40.94
16331;BME280;8275;48.206;16.340;2023-03-16T02:32:49;99688.56;;;7.26;40.60
16331;BME280;8275;48.206;16.340;2023-03-16T02:35:20;99696.13;;;7.24;40.78
16331;BME280;8275;48.206;16.340;2023-03-16T02:37:48;99693.84;;;7.21;41.08
16331;BME280;8275;48.206;16.340;2023-03-16T02:40:24;99700.59;;;7.18;41.52
16331;BME280;8275;48.206;16.340;2023-03-16T02:42:58;99701.03;;;7.15;41.22
16331;BME280;8275;48.206;16.340;2023-03-16T02:45:36;99697.91;;;7.12;41.71
16331;BME280;8275;48.206;16.340;2023-03-16T02:48:11;99698.13;;;7.10;41.25
16331;BME280;8275;48.206;16.340;2023-03-16T02:50:45;99708.66;;;7.06;41.90
16331;BME280;8275;48.206;16.340;2023-03-16T02:53:15;99717.03;;;7.05;41.15
16331;BME280;8275;48.206;16.340;2023-03-16T02:55:43;99720.00;;;7.03;41.92
16331;BME280;8275;48.206;16.340;2023-03-16T02:58:13;99717.50;;;7.02;42.46
16331;BME280;8275;48.206;16.340;2023-03-16T03:00:43;99715.22;;;6.99;42.17
16331;BME280;8275;48.206;16.340;2023-03-16T03:03:12;99718.16;;;6.97;42.05
16331;BME280;8275;48.206;16.340;2023-03-16T03:05:41;99725.50;;;6.97;42.10
16331;BME280;8275;48.206;16.340;2023-03-16T03:08:09;99734.94;;;6.94;42.04
16331;BME280;8275;48.206;16.340;2023-03-16T03:10:38;99730.78;;;6.92;42.07
16331;BME280;8275;48.206;16.340;2023-03-16T03:13:07;99740.81;;;6.91;41.98
16331;BME280;8275;48.206;16.340;2023-03-16T03:15:35;99746.50;;;6.90;42.06
16331;BME280;8275;48.206;16.340;2023-03-16T03:18:05;99749.44;;;6.88;41.49
16331;BME280;8275;48.206;16.340;2023-03-16T03:20:35;99753.22;;;6.87;41.29
16331;BME280;8275;48.206;16.340;2023-03-16T03:23:03;99755.09;;;6.87;42.24
16331;BME280;8275;48.206;16.340;2023-03-16T03:25:32;99759.94;;;6.85;42.12
16331;BME280;8275;48.206;16.340;2023-03-16T03:28:03;99760.19;;;6.83;42.41
16331;BME280;8275;48.206;16.340;2023-03-16T03:30:32;99763.09;;;6.82;41.95
16331;BME280;8275;48.206;16.340;2023-03-16T03:33:01;99755.16;;;6.80;41.80
16331;BME280;8275;48.206;16.340;2023-03-16T03:35:31;99755.38;;;6.79;42.18
16331;BME280;8275;48.206;16.340;2023-03-16T03:37:59;99766.28;;;6.79;41.89
16331;BME280;8275;48.206;16.340;2023-03-16T03:40:28;99759.38;;;6.76;42.23
16331;BME280;8275;48.206;16.340;2023-03-16T03:42:57;99760.44;;;6.75;42.66
16331;BME280;8275;48.206;16.340;2023-03-16T03:45:25;99762.53;;;6.73;41.84
16331;BME280;8275;48.206;16.340;2023-03-16T03:47:53;99762.53;;;6.73;41.98
16331;BME280;8275;48.206;16.340;2023-03-16T03:50:22;99765.50;;;6.72;42.79
16331;BME280;8275;48.206;16.340;2023-03-16T03:52:52;99770.09;;;6.71;42.54
16331;BME280;8275;48.206;16.340;2023-03-16T03:55:20;99766.75;;;6.69;42.93
16331;BME280;8275;48.206;16.340;2023-03-16T03:57:49;99767.78;;;6.68;42.70
16331;BME280;8275;48.206;16.340;2023-03-16T04:00:19;99756.06;;;6.68;42.84
16331;BME280;8275;48.206;16.340;2023-03-16T04:02:48;99761.50;;;6.68;43.46
16331;BME280;8275;48.206;16.340;2023-03-16T04:05:16;99762.59;;;6.67;42.69
16331;BME280;8275;48.206;16.340;2023-03-16T04:07:45;99768.88;;;6.67;43.67
16331;BME280;8275;48.206;16.340;2023-03-16T04:10:17;99769.28;;;6.64;43.63
16331;BME280;8275;48.206;16.340;2023-03-16T04:12:45;99760.28;;;6.64;43.72
16331;BME280;8275;48.206;16.340;2023-03-16T04:15:13;99767.63;;;6.63;43.36
16331;BME280;8275;48.206;16.340;2023-03-16T04:17:42;99767.00;;;6.61;43.48
16331;BME280;8275;48.206;16.340;2023-03-16T04:20:11;99765.34;;;6.60;42.77
16331;BME280;8275;48.206;16.340;2023-03-16T04:22:42;99776.44;;;6.59;43.28
16331;BME280;8275;48.206;16.340;2023-03-16T04:25:12;99782.94;;;6.58;43.11
16331;BME280;8275;48.206;16.340;2023-03-16T04:27:43;99782.09;;;6.57;43.67
16331;BME280;8275;48.206;16.340;2023-03-16T04:30:14;99782.34;;;6.56;43.92
16331;BME280;8275;48.206;16.340;2023-03-16T04:32:42;99785.06;;;6.56;43.35
16331;BME280;8275;48.206;16.340;2023-03-16T04:35:11;99792.63;;;6.54;43.80
16331;BME280;8275;48.206;16.340;2023-03-16T04:37:41;99790.09;;;6.52;43.67
16331;BME280;8275;48.206;16.340;2023-03-16T04:40:11;99800.13;;;6.52;43.44
16331;BME280;8275;48.206;16.340;2023-03-16T04:42:45;99803.09;;;6.50;43.83
16331;BME280;8275;48.206;16.340;2023-03-16T04:45:15;99804.16;;;6.49;43.85
16331;BME280;8275;48.206;16.340;2023-03-16T04:47:44;99803.31;;;6.49;43.88
16331;BME280;8275;48.206;16.340;2023-03-16T04:50:13;99807.91;;;6.48;43.45
16331;BME280;8275;48.206;16.340;2023-03-16T04:52:42;99813.34;;;6.48;44.17
16331;BME280;8275;48.206;16.340;2023-03-16T04:55:11;99806.22;;;6.47;44.48
16331;BME280;8275;48.206;16.340;2023-03-16T04:57:39;99808.94;;;6.47;43.52
16331;BME280;8275;48.206;16.340;2023-03-16T05:00:11;99807.31;;;6.46;43.61
16331;BME280;8275;48.206;16.340;2023-03-16T05:02:45;99815.47;;;6.46;43.81
16331;BME280;8275;48.206;16.340;2023-03-16T05:05:13;99822.78;;;6.46;44.13
16331;BME280;8275;48.206;16.340;2023-03-16T05:07:42;99823.63;;;6.46;43.71
16331;BME280;8275;48.206;16.340;2023-03-16T05:10:13;99829.28;;;6.45;43.88
16331;BME280;8275;48.206;16.340;2023-03-16T05:12:42;99829.28;;;6.45;44.27
16331;BME280;8275;48.206;16.340;2023-03-16T05:15:13;99835.53;;;6.45;43.20
16331;BME280;8275;48.206;16.340;2023-03-16T05:17:41;99838.28;;;6.45;44.43
16331;BME280;8275;48.206;16.340;2023-03-16T05:20:12;99837.22;;;6.46;44.49
16331;BME280;8275;48.206;16.340;2023-03-16T05:22:52;99842.69;;;6.46;43.49
16331;BME280;8275;48.206;16.340;2023-03-16T05:25:20;99833.66;;;6.46;43.78
16331;BME280;8275;48.206;16.340;2023-03-16T05:27:51;99843.53;;;6.47;44.22
16331;BME280;8275;48.206;16.340;2023-03-16T05:30:22;99847.06;;;6.47;44.01
16331;BME280;8275;48.206;16.340;2023-03-16T05:32:51;99843.28;;;6.48;44.26
16331;BME280;8275;48.206;16.340;2023-03-16T05:35:20;99841.41;;;6.49;43.99
16331;BME280;8275;48.206;16.340;2023-03-16T05:37:50;99842.03;;;6.51;44.25
16331;BME280;8275;48.206;16.340;2023-03-16T05:40:19;99856.25;;;6.53;43.49
16331;BME280;8275;48.206;16.340;2023-03-16T05:42:54;99854.16;;;6.55;44.32
16331;BME280;8275;48.206;16.340;2023-03-16T05:45:25;99854.56;;;6.58;43.63
16331;BME280;8275;48.206;16.340;2023-03-16T05:47:54;99857.66;;;6.62;44.21
16331;BME280;8275;48.206;16.340;2023-03-16T05:50:22;99856.41;;;6.64;44.11
16331;BME280;8275;48.206;16.340;2023-03-16T05:52:52;99857.63;;;6.68;43.75
16331;BME280;8275;48.206;16.340;2023-03-16T05:55:21;99856.38;;;6.71;44.48
16331;BME280;8275;48.206;16.340;2023-03-16T05:57:49;99855.72;;;6.75;44.51
16331;BME280;8275;48.206;16.340;2023-03-16T06:00:19;99865.13;;;6.79;43.55
16331;BME280;8275;48.206;16.340;2023-03-16T06:02:52;99871.59;;;6.85;43.10
16331;BME280;8275;48.206;16.340;2023-03-16T06:05:21;99876.38;;;6.89;43.98
16331;BME280;8275;48.206;16.340;2023-03-16T06:07:51;99886.63;;;6.94;43.24
16331;BME280;8275;48.206;16.340;2023-03-16T06:10:20;99878.03;;;6.97;43.16
16331;BME280;8275;48.206;16.340;2023-03-16T06:12:49;99885.09;;;7.04;43.39
16331;BME280;8275;48.206;16.340;2023-03-16T06:15:17;99886.09;;;7.10;43.03
16331;BME280;8275;48.206;16.340;2023-03-16T06:17:46;99895.06;;;7.17;43.01
16331;BME280;8275;48.206;16.340;2023-03-16T06:20:16;99888.75;;;7.23;43.02
16331;BME280;8275;48.206;16.340;2023-03-16T06:22:45;99887.03;;;7.29;43.11
16331;BME280;8275;48.206;16.340;2023-03-16T06:25:14;99896.84;;;7.36;43.25
16331;BME280;8275;48.206;16.340;2023-03-16T06:27:43;99897.63;;;7.43;42.75
16331;BME280;8275;48.206;16.340;2023-03-16T06:30:13;99902.19;;;7.49;42.76
16331;BME280;8275;48.206;16.340;2023-03-16T06:32:42;99906.75;;;7.55;42.44
16331;BME280;8275;48.206;16.340;2023-03-16T06:35:13;99903.59;;;7.58;42.75
16331;BME280;8275;48.206;16.340;2023-03-16T06:37:43;99911.94;;;7.63;42.63
16331;BME280;8275;48.206;16.340;2023-03-16T06:40:12;99912.72;;;7.70;42.53
16331;BME280;8275;48.206;16.340;2023-03-16T06:42:41;99917.09;;;7.78;41.83
16331;BME280;8275;48.206;16.340;2023-03-16T06:45:12;99922.00;;;7.88;42.06
16331;BME280;8275;48.206;16.340;2023-03-16T06:47:42;99934.09;;;7.98;42.10
16331;BME280;8275;48.206;16.340;2023-03-16T06:50:11;99928.34;;;8.06;41.62
16331;BME280;8275;48.206;16.340;2023-03-16T06:52:40;99930.81;;;8.14;41.81
16331;BME280;8275;48.206;16.340;2023-03-16T06:55:10;99934.06;;;8.23;41.60
16331;BME280;8275;48.206;16.340;2023-03-16T06:57:40;99931.31;;;8.29;41.03
16331;BME280;8275;48.206;16.340;2023-03-16T07:00:11;99931.78;;;8.44;41.01
16331;BME280;8275;48.206;16.340;2023-03-16T07:02:41;99934.13;;;8.59;40.77
16331;BME280;8275;48.206;16.340;2023-03-16T07:05:10;99917.47;;;8.67;40.36
16331;BME280;8275;48.206;16.340;2023-03-16T07:07:40;99929.13;;;8.74;40.28
16331;BME280;8275;48.206;16.340;2023-03-16T07:10:13;99927.84;;;8.77;40.13
16331;BME280;8275;48.206;16.340;2023-03-16T07:12:43;99928.81;;;8.82;40.05
16331;BME280;8275;48.206;16.340;2023-03-16T07:15:12;99923.25;;;8.89;40.26
16331;BME280;8275;48.206;16.340;2023-03-16T07:17:41;99927.59;;;8.96;39.76
16331;BME280;8275;48.206;16.340;2023-03-16T07:20:11;99931.91;;;9.04;39.61
16331;BME280;8275;48.206;16.340;2023-03-16T07:22:40;99929.94;;;9.11;39.31
16331;BME280;8275;48.206;16.340;2023-03-16T07:25:11;99926.84;;;9.19;39.38
16331;BME280;8275;48.206;16.340;2023-03-16T07:27:40;99932.22;;;9.26;39.10
16331;BME280;8275;48.206;16.340;2023-03-16T07:30:11;99932.75;;;9.34;39.01
16331;BME280;8275;48.206;16.340;2023-03-16T07:32:40;99924.81;;;9.44;38.58
16331;BME280;8275;48.206;16.340;2023-03-16T07:35:10;99927.34;;;9.46;38.24
16331;BME280;8275;48.206;16.340;2023-03-16T07:37:38;99924.94;;;9.49;38.05
16331;BME280;8275;48.206;16.340;2023-03-16T07:40:11;99927.38;;;9.57;38.26
16331;BME280;8275;48.206;16.340;2023-03-16T07:42:40;99920.50;;;9.66;38.22
16331;BME280;8275;48.206;16.340;2023-03-16T07:45:10;99922.03;;;9.74;37.49
16331;BME280;8275;48.206;16.340;2023-03-16T07:47:40;99926.34;;;9.81;37.79
16331;BME280;8275;48.206;16.340;2023-03-16T07:50:10;99923.25;;;9.89;37.33
16331;BME280;8275;48.206;16.340;2023-03-16T07:52:39;99930.06;;;9.99;37.50
16331;BME280;8275;48.206;16.340;2023-03-16T07:55:08;99936.00;;;10.07;37.08
16331;BME280;8275;48.206;16.340;2023-03-16T07:57:39;99924.50;;;10.17;37.23
16331;BME280;8275;48.206;16.340;2023-03-16T08:00:10;99929.97;;;10.28;37.25
16331;BME280;8275;48.206;16.340;2023-03-16T08:02:40;99932.47;;;10.41;36.71
16331;BME280;8275;48.206;16.340;2023-03-16T08:05:09;99935.91;;;10.48;36.22
16331;BME280;8275;48.206;16.340;2023-03-16T08:07:38;99933.88;;;10.55;35.89
16331;BME280;8275;48.206;16.340;2023-03-16T08:10:09;99927.22;;;10.63;36.08
16331;BME280;8275;48.206;16.340;2023-03-16T08:12:39;99931.25;;;10.72;36.12
16331;BME280;8275;48.206;16.340;2023-03-16T08:15:09;99938.03;;;10.81;35.62
16331;BME280;8275;48.206;16.340;2023-03-16T08:17:38;99947.78;;;10.89;35.04
16331;BME280;8275;48.206;16.340;2023-03-16T08:20:09;99951.81;;;10.98;35.30
16331;BME280;8275;48.206;16.340;2023-03-16T08:22:41;99952.00;;;11.08;35.36
16331;BME280;8275;48.206;16.340;2023-03-16T08:25:14;99956.03;;;11.17;35.11
16331;BME280;8275;48.206;16.340;2023-03-16T08:27:44;99946.59;;;11.24;34.74
16331;BME280;8275;48.206;16.340;2023-03-16T08:30:14;99962.06;;;11.30;34.50
16331;BME280;8275;48.206;16.340;2023-03-16T08:32:43;99951.53;;;11.39;34.63
16331;BME280;8275;48.206;16.340;2023-03-16T08:35:13;99952.81;;;11.48;34.12
16331;BME280;8275;48.206;16.340;2023-03-16T08:37:43;99951.34;;;11.57;34.19
16331;BME280;8275;48.206;16.340;2023-03-16T08:40:12;99952.88;;;11.65;33.73
16331;BME280;8275;48.206;16.340;2023-03-16T08:42:43;99956.06;;;11.73;33.62
16331;BME280;8275;48.206;16.340;2023-03-16T08:45:12;99964.97;;;11.80;33.39
16331;BME280;8275;48.206;16.340;2023-03-16T08:47:41;99952.72;;;11.88;33.28
16331;BME280;8275;48.206;16.340;2023-03-16T08:50:11;99963.00;;;11.92;32.65
16331;BME280;8275;48.206;16.340;2023-03-16T08:52:41;99956.50;;;11.98;32.59
16331;BME280;8275;48.206;16.340;2023-03-16T08:55:10;99962.91;;;12.04;32.40
16331;BME280;8275;48.206;16.340;2023-03-16T08:57:39;99960.81;;;12.11;32.56
16331;BME280;8275;48.206;16.340;2023-03-16T09:00:12;99968.75;;;12.08;31.87
16331;BME280;8275;48.206;16.340;2023-03-16T09:02:42;99964.56;;;12.05;30.91
16331;BME280;8275;48.206;16.340;2023-03-16T09:05:12;99956.34;;;12.05;30.92
16331;BME280;8275;48.206;16.340;2023-03-16T09:07:42;99960.25;;;12.09;30.80
16331;BME280;8275;48.206;16.340;2023-03-16T09:10:11;99959.56;;;12.19;30.96
16331;BME280;8275;48.206;16.340;2023-03-16T09:12:43;99964.97;;;12.30;30.79
16331;BME280;8275;48.206;16.340;2023-03-16T09:15:12;99967.56;;;12.37;30.66
16331;BME280;8275;48.206;16.340;2023-03-16T09:17:41;99969.91;;;12.45;30.57
16331;BME280;8275;48.206;16.340;2023-03-16T09:20:14;99968.31;;;12.49;29.86
16331;BME280;8275;48.206;16.340;2023-03-16T09:22:53;99972.47;;;12.51;29.76
16331;BME280;8275;48.206;16.340;2023-03-16T09:25:22;99966.72;;;12.53;29.84
16331;BME280;8275;48.206;16.340;2023-03-16T09:27:51;99969.88;;;12.61;29.60
16331;BME280;8275;48.206;16.340;2023-03-16T09:30:21;99965.53;;;12.65;29.58
16331;BME280;8275;48.206;16.340;2023-03-16T09:32:50;99963.94;;;12.69;28.77
16331;BME280;8275;48.206;16.340;2023-03-16T09:35:18;99962.88;;;12.71;29.19
16331;BME280;8275;48.206;16.340;2023-03-16T09:37:47;99964.50;;;12.72;28.70
16331;BME280;8275;48.206;16.340;2023-03-16T09:40:33;99954.84;;;12.69;28.34
16331;BME280;8275;48.206;16.340;2023-03-16T09:43:19;99963.34;;;12.67;28.58
16331;BME280;8275;48.206;16.340;2023-03-16T09:46:04;99956.19;;;12.66;28.74
16331;BME280;8275;48.206;16.340;2023-03-16T09:48:37;99956.44;;;12.65;28.43
16331;BME280;8275;48.206;16.340;2023-03-16T09:51:16;99947.13;;;12.66;28.54
16331;BME280;8275;48.206;16.340;2023-03-16T09:53:49;99949.34;;;12.69;29.03
16331;BME280;8275;48.206;16.340;2023-03-16T09:56:28;99957.19;;;12.77;29.13
16331;BME280;8275;48.206;16.340;2023-03-16T09:58:58;99948.47;;;12.85;28.89
16331;BME280;8275;48.206;16.340;2023-03-16T10:01:38;99952.41;;;12.89;28.62
16331;BME280;8275;48.206;16.340;2023-03-16T10:04:22;99957.63;;;12.91;28.07
16331;BME280;8275;48.206;16.340;2023-03-16T10:07:02;99963.13;;;12.91;27.59
16331;BME280;8275;48.206;16.340;2023-03-16T10:09:37;99965.88;;;12.91;28.05
16331;BME280;8275;48.206;16.340;2023-03-16T10:12:12;99958.22;;;12.93;28.20
16331;BME280;8275;48.206;16.340;2023-03-16T10:14:47;99960.47;;;12.96;28.15
16331;BME280;8275;48.206;16.340;2023-03-16T10:17:25;99956.94;;;13.00;28.27
16331;BME280;8275;48.206;16.340;2023-03-16T10:20:00;99949.00;;;13.04;27.35
16331;BME280;8275;48.206;16.340;2023-03-16T10:22:33;99958.09;;;13.04;26.50
16331;BME280;8275;48.206;16.340;2023-03-16T10:25:08;99950.91;;;13.03;26.78
16331;BME280;8275;48.206;16.340;2023-03-16T10:27:41;99969.69;;;13.06;26.95
16331;BME280;8275;48.206;16.340;2023-03-16T10:30:23;99970.81;;;13.05;26.58
16331;BME280;8275;48.206;16.340;2023-03-16T10:33:00;99958.44;;;13.08;26.80
16331;BME280;8275;48.206;16.340;2023-03-16T10:35:39;99952.50;;;13.16;27.23
16331;BME280;8275;48.206;16.340;2023-03-16T10:38:25;99952.09;;;13.29;27.14
16331;BME280;8275;48.206;16.340;2023-03-16T10:40:54;99958.03;;;13.43;27.16
16331;BME280;8275;48.206;16.340;2023-03-16T10:43:24;99952.06;;;13.51;27.00
16331;BME280;8275;48.206;16.340;2023-03-16T10:45:59;99943.66;;;13.62;26.72
16331;BME280;8275;48.206;16.340;2023-03-16T10:48:31;99949.94;;;13.84;26.61
16331;BME280;8275;48.206;16.340;2023-03-16T10:51:06;99935.63;;;14.19;26.70
16331;BME280;8275;48.206;16.340;2023-03-16T10:53:37;99934.00;;;14.55;26.23
16331;BME280;8275;48.206;16.340;2023-03-16T10:56:11;99933.66;;;14.93;26.06
16331;BME280;8275;48.206;16.340;2023-03-16T10:58:42;99931.63;;;15.30;26.02
16331;BME280;8275;48.206;16.340;2023-03-16T11:01:17;99940.56;;;15.63;25.44
16331;BME280;8275;48.206;16.340;2023-03-16T11:03:51;99941.44;;;15.88;24.81
16331;BME280;8275;48.206;16.340;2023-03-16T11:06:24;99933.41;;;16.12;24.78
16331;BME280;8275;48.206;16.340;2023-03-16T11:09:04;99921.50;;;16.42;24.93
16331;BME280;8275;48.206;16.340;2023-03-16T11:11:36;99920.63;;;16.81;24.52
16331;BME280;8275;48.206;16.340;2023-03-16T11:14:12;99912.22;;;17.17;23.97
16331;BME280;8275;48.206;16.340;2023-03-16T11:16:45;99915.06;;;17.61;23.43
16331;BME280;8275;48.206;16.340;2023-03-16T11:19:23;99922.28;;;17.95;23.13
16331;BME280;8275;48.206;16.340;2023-03-16T11:21:59;99908.94;;;18.31;23.18
16331;BME280;8275;48.206;16.340;2023-03-16T11:24:37;99901.31;;;18.75;23.16
16331;BME280;8275;48.206;16.340;2023-03-16T11:27:20;99902.69;;;19.20;22.86
16331;BME280;8275;48.206;16.340;2023-03-16T11:30:03;99909.53;;;19.51;21.35
16331;BME280;8275;48.206;16.340;2023-03-16T11:32:35;99902.41;;;19.64;20.26
16331;BME280;8275;48.206;16.340;2023-03-16T11:35:15;99899.34;;;19.84;20.90
16331;BME280;8275;48.206;16.340;2023-03-16T11:38:00;99898.22;;;20.17;20.70
16331;BME280;8275;48.206;16.340;2023-03-16T11:40:40;99891.75;;;20.54;18.01
16331;BME280;8275;48.206;16.340;2023-03-16T11:43:31;99891.91;;;20.90;19.14
16331;BME280;8275;48.206;16.340;2023-03-16T11:46:10;99881.75;;;21.35;19.51
16331;BME280;8275;48.206;16.340;2023-03-16T11:48:49;99878.75;;;21.81;18.88
16331;BME280;8275;48.206;16.340;2023-03-16T11:51:39;99878.41;;;22.18;19.19
16331;BME280;8275;48.206;16.340;2023-03-16T11:54:32;99856.16;;;22.57;19.25
16331;BME280;8275;48.206;16.340;2023-03-16T11:57:13;99862.75;;;23.00;18.59
16331;BME280;8275;48.206;16.340;2023-03-16T12:00:09;99859.56;;;23.33;17.71
16331;BME280;8275;48.206;16.340;2023-03-16T12:03:03;99853.69;;;23.60;17.76
16331;BME280;8275;48.206;16.340;2023-03-16T12:05:47;99840.38;;;23.91;18.11
16331;BME280;8275;48.206;16.340;2023-03-16T12:08:43;99835.72;;;24.29;18.25
16331;BME280;8275;48.206;16.340;2023-03-16T12:11:19;99828.66;;;24.78;18.12
16331;BME280;8275;48.206;16.340;2023-03-16T12:14:12;99821.59;;;25.31;17.90
16331;BME280;8275;48.206;16.340;2023-03-16T12:16:46;99816.19;;;25.75;17.44
16331;BME280;8275;48.206;16.340;2023-03-16T12:19:21;99811.75;;;26.07;16.91
16331;BME280;8275;48.206;16.340;2023-03-16T12:22:01;99814.16;;;26.29;15.93
16331;BME280;8275;48.206;16.340;2023-03-16T12:24:38;99807.91;;;26.44;15.66
16331;BME280;8275;48.206;16.340;2023-03-16T12:27:14;99803.03;;;26.66;16.26
16331;BME280;8275;48.206;16.340;2023-03-16T12:29:55;99799.91;;;26.91;15.99
16331;BME280;8275;48.206;16.340;2023-03-16T12:32:38;99803.50;;;27.16;15.55
16331;BME280;8275;48.206;16.340;2023-03-16T12:35:24;99801.16;;;27.30;15.18
16331;BME280;8275;48.206;16.340;2023-03-16T12:38:09;99794.44;;;27.47;15.47
16331;BME280;8275;48.206;16.340;2023-03-16T12:40:47;99785.16;;;27.86;15.30
16331;BME280;8275;48.206;16.340;2023-03-16T12:43:39;99786.63;;;28.23;15.43
16331;BME280;8275;48.206;16.340;2023-03-16T12:46:14;99783.78;;;28.67;15.18
16331;BME280;8275;48.206;16.340;2023-03-16T12:48:48;99784.66;;;29.17;14.82
16331;BME280;8275;48.206;16.340;2023-03-16T12:51:19;99771.44;;;29.56;14.60
16331;BME280;8275;48.206;16.340;2023-03-16T12:53:53;99772.06;;;29.84;14.24
16331;BME280;8275;48.206;16.340;2023-03-16T12:56:29;99770.81;;;30.24;13.55
16331;BME280;8275;48.206;16.340;2023-03-16T12:59:01;99772.69;;;30.58;12.85
16331;BME280;8275;48.206;16.340;2023-03-16T13:01:40;99763.97;;;30.89;13.22
16331;BME280;8275;48.206;16.340;2023-03-16T13:04:13;99764.88;;;31.23;12.73
16331;BME280;8275;48.206;16.340;2023-03-16T13:06:45;99758.84;;;31.51;12.28
16331;BME280;8275;48.206;16.340;2023-03-16T13:09:19;99764.03;;;31.75;9.42
16331;BME280;8275;48.206;16.340;2023-03-16T13:11:50;99758.13;;;31.90;10.59
16331;BME280;8275;48.206;16.340;2023-03-16T13:14:36;99759.31;;;31.86;10.76
16331;BME280;8275;48.206;16.340;2023-03-16T13:17:25;99760.84;;;31.50;11.28
16331;BME280;8275;48.206;16.340;2023-03-16T13:20:01;99760.25;;;31.38;11.39
16331;BME280;8275;48.206;16.340;2023-03-16T13:22:43;99765.88;;;31.64;9.75
16331;BME280;8275;48.206;16.340;2023-03-16T13:25:16;99766.91;;;31.82;10.43
16331;BME280;8275;48.206;16.340;2023-03-16T13:27:53;99765.38;;;31.88;10.61
16331;BME280;8275;48.206;16.340;2023-03-16T13:30:26;99763.19;;;32.04;10.89
16331;BME280;8275;48.206;16.340;2023-03-16T13:33:00;99767.16;;;32.36;10.84
16331;BME280;8275;48.206;16.340;2023-03-16T13:35:36;99765.00;;;32.63;9.57
16331;BME280;8275;48.206;16.340;2023-03-16T13:38:13;99765.56;;;32.79;9.71